createdAt,value
2022-08-26T00:02:20.571Z,21.10
2022-08-26T00:05:39.329Z,21.10
2022-08-26T00:08:56.646Z,21.10
2022-08-26T00:11:53.238Z,21.00
2022-08-26T00:14:44.972Z,21.00
2022-08-26T00:17:54.390Z,21.00
2022-08-26T00:24:18.963Z,20.90
2022-08-26T00:27:55.393Z,20.90
2022-08-26T00:31:16.080Z,20.80
2022-08-26T00:34:22.195Z,20.90
2022-08-26T00:37:21.899Z,20.90
2022-08-26T00:48:06.142Z,20.70
2022-08-26T00:51:24.861Z,20.60
2022-08-26T00:54:45.416Z,20.60
2022-08-26T00:57:59.412Z,20.60
2022-08-26T01:05:00.831Z,20.60
2022-08-26T01:08:03.678Z,20.50
2022-08-26T01:11:05.893Z,20.50
2022-08-26T01:13:41.513Z,20.40
2022-08-26T01:16:16.965Z,20.40
2022-08-26T01:18:46.843Z,20.50
2022-08-26T01:21:25.958Z,20.50
2022-08-26T01:24:00.052Z,20.40
2022-08-26T01:26:32.986Z,20.40
2022-08-26T01:29:04.641Z,20.40
2022-08-26T01:31:39.069Z,20.30
2022-08-26T01:34:12.025Z,20.30
2022-08-26T01:36:41.407Z,20.30
2022-08-26T01:39:14.325Z,20.30
2022-08-26T01:41:45.462Z,20.30
2022-08-26T01:44:26.515Z,20.30
2022-08-26T01:46:56.075Z,20.30
2022-08-26T01:49:26.059Z,20.30
2022-08-26T01:52:00.562Z,20.20
2022-08-26T01:54:38.725Z,20.10
2022-08-26T01:57:09.536Z,20.20
2022-08-26T01:59:39.423Z,20.10
2022-08-26T02:02:13.838Z,20.10
2022-08-26T02:16:26.797Z,20.10
2022-08-26T02:30:12.145Z,20.10
2022-08-26T02:36:19.290Z,20.10
2022-08-26T02:50:40.164Z,20.10
2022-08-26T03:29:23.217Z,20.10
2022-08-26T03:36:37.257Z,20.00
2022-08-26T03:59:02.384Z,19.70
2022-08-26T04:02:37.425Z,19.70
2022-08-26T04:09:45.229Z,19.70
2022-08-26T04:22:02.407Z,19.70
2022-08-26T04:31:34.563Z,19.50
2022-08-26T04:38:39.472Z,19.60
2022-08-26T04:43:07.223Z,19.60
2022-08-26T05:01:15.393Z,19.90
2022-08-26T05:18:33.164Z,20.30
2022-08-26T05:57:18.881Z,22.00
2022-08-26T06:26:16.931Z,23.20
2022-08-26T06:56:58.396Z,23.30
2022-08-26T06:59:34.106Z,23.40
2022-08-26T07:02:46.924Z,23.40
2022-08-26T07:15:46.523Z,24.00
2022-08-26T07:22:49.063Z,24.40
2022-08-26T07:27:14.529Z,24.50
2022-08-26T07:31:50.447Z,24.40
2022-08-26T07:34:33.898Z,24.50
2022-08-26T07:37:35.585Z,24.60
2022-08-26T07:40:30.500Z,24.70
2022-08-26T07:43:19.096Z,24.90
2022-08-26T07:52:27.235Z,24.70
2022-08-26T07:55:41.831Z,24.70
2022-08-26T07:58:54.808Z,25.00
2022-08-26T08:02:01.587Z,25.20
2022-08-26T08:04:57.262Z,25.30
2022-08-26T08:08:26.633Z,25.40
2022-08-26T08:11:51.324Z,25.50
2022-08-26T08:14:43.865Z,25.40
2022-08-26T08:18:20.451Z,25.50
2022-08-26T08:21:57.822Z,25.70
2022-08-26T08:24:53.000Z,26.10
2022-08-26T08:34:28.551Z,26.50
2022-08-26T08:51:39.295Z,27.20
2022-08-26T08:54:44.073Z,27.40
2022-08-26T08:58:08.975Z,27.30
2022-08-26T09:01:25.454Z,27.30
2022-08-26T09:11:31.033Z,27.60
2022-08-26T09:14:15.651Z,27.50
2022-08-26T09:20:27.404Z,27.50
2022-08-26T09:23:41.678Z,27.60
2022-08-26T09:26:47.453Z,27.80
2022-08-26T09:32:44.890Z,27.70
2022-08-26T09:35:42.151Z,27.80
2022-08-26T09:38:52.542Z,27.90
2022-08-26T09:42:39.252Z,27.80
2022-08-26T09:46:12.128Z,27.70
2022-08-26T09:50:33.088Z,28.10
2022-08-26T09:55:46.807Z,28.60
2022-08-26T09:59:11.149Z,28.70
2022-08-26T10:09:34.031Z,29.60
2022-08-26T10:20:38.332Z,29.70
2022-08-26T10:24:55.567Z,29.90
2022-08-26T10:46:50.768Z,30.00
2022-08-26T10:57:38.422Z,30.30
2022-08-26T11:04:48.114Z,31.30
2022-08-26T11:08:09.595Z,31.50
2022-08-26T11:11:33.988Z,32.00
2022-08-26T11:19:12.342Z,31.80
2022-08-26T11:26:37.875Z,32.30
2022-08-26T11:34:13.882Z,32.80
2022-08-26T11:37:44.220Z,33.30
2022-08-26T11:44:18.538Z,33.50
2022-08-26T11:51:06.466Z,34.10
2022-08-26T11:54:38.333Z,34.50
2022-08-26T11:57:57.148Z,35.00
2022-08-26T12:04:22.066Z,35.70
2022-08-26T12:10:53.815Z,36.40
2022-08-26T12:14:13.471Z,35.30
2022-08-26T12:17:06.310Z,33.10
2022-08-26T12:20:16.672Z,31.60
2022-08-26T12:23:03.402Z,30.60
2022-08-26T12:29:40.656Z,29.20
2022-08-26T12:32:57.633Z,28.70
2022-08-26T12:35:56.531Z,28.10
2022-08-26T12:38:42.080Z,27.40
2022-08-26T12:42:11.372Z,25.70
2022-08-26T12:45:22.869Z,24.10
2022-08-26T12:48:41.264Z,23.40
2022-08-26T12:51:40.866Z,23.20
2022-08-26T12:54:52.446Z,23.20
2022-08-26T12:57:38.543Z,23.10
2022-08-26T13:00:44.910Z,23.20
2022-08-26T13:03:52.829Z,23.10
2022-08-26T13:06:43.524Z,22.90
2022-08-26T13:09:50.003Z,22.70
2022-08-26T13:12:44.648Z,22.70
2022-08-26T13:15:35.362Z,22.60
2022-08-26T13:18:11.809Z,22.60
2022-08-26T13:24:35.943Z,22.50
2022-08-26T13:27:18.693Z,22.50
2022-08-26T13:30:36.129Z,22.30
2022-08-26T13:36:22.147Z,22.30
2022-08-26T13:38:59.758Z,22.20
2022-08-26T13:41:38.966Z,22.20
2022-08-26T13:44:32.330Z,22.30
2022-08-26T13:47:32.141Z,22.30
2022-08-26T13:50:10.762Z,22.30
2022-08-26T13:53:08.021Z,22.40
2022-08-26T13:55:50.954Z,22.40
2022-08-26T13:58:20.955Z,22.40
2022-08-26T14:01:02.729Z,22.40
2022-08-26T14:03:52.860Z,22.50
2022-08-26T14:06:29.756Z,22.50
2022-08-26T14:09:02.602Z,22.40
2022-08-26T14:14:27.481Z,22.40
2022-08-26T14:16:59.606Z,22.40
2022-08-26T14:19:29.491Z,22.40
2022-08-26T14:21:59.237Z,22.00
2022-08-26T14:24:27.724Z,21.90
2022-08-26T14:26:55.746Z,21.80
2022-08-26T14:29:24.183Z,21.80
2022-08-26T14:31:52.152Z,21.90
2022-08-26T14:34:21.612Z,21.90
2022-08-26T14:36:49.731Z,22.00
2022-08-26T14:39:17.770Z,22.10
2022-08-26T14:41:53.715Z,22.30
2022-08-26T14:44:25.881Z,22.40
2022-08-26T14:46:55.077Z,22.50
2022-08-26T14:49:27.574Z,22.60
2022-08-26T14:51:56.426Z,22.70
2022-08-26T14:54:23.437Z,22.90
2022-08-26T14:56:54.254Z,23.00
2022-08-26T14:59:25.729Z,23.10
2022-08-26T15:01:54.391Z,23.20
2022-08-26T15:04:25.255Z,23.40
2022-08-26T15:06:55.545Z,23.60
2022-08-26T15:09:24.494Z,23.80
2022-08-26T15:11:53.054Z,23.80
2022-08-26T15:14:56.385Z,24.00
2022-08-26T15:18:20.416Z,24.30
2022-08-26T15:27:34.594Z,24.40
2022-08-26T15:30:21.930Z,24.40
2022-08-26T15:33:25.605Z,24.40
2022-08-26T15:39:39.912Z,24.80
2022-08-26T15:42:17.546Z,24.80
2022-08-26T15:44:51.059Z,24.90
2022-08-26T15:47:55.290Z,24.90
2022-08-26T15:50:32.661Z,24.70
2022-08-26T15:53:03.890Z,24.50
2022-08-26T15:55:40.033Z,24.40
2022-08-26T15:58:12.758Z,24.40
2022-08-26T16:01:00.728Z,24.40
2022-08-26T16:03:32.204Z,24.50
2022-08-26T16:06:04.246Z,24.60
2022-08-26T16:08:36.371Z,24.70
2022-08-26T16:11:11.521Z,24.70
2022-08-26T16:13:46.133Z,24.50
2022-08-26T16:16:26.444Z,24.60
2022-08-26T16:18:57.893Z,24.40
2022-08-26T16:21:30.885Z,24.50
2022-08-26T16:27:00.194Z,24.20
2022-08-26T16:29:34.974Z,24.10
2022-08-26T16:32:08.637Z,24.20
2022-08-26T16:34:56.682Z,24.10
2022-08-26T16:37:29.815Z,24.00
2022-08-26T16:40:02.667Z,23.90
2022-08-26T16:42:43.026Z,23.80
2022-08-26T16:45:22.986Z,23.50
2022-08-26T16:47:55.552Z,23.30
2022-08-26T16:50:29.907Z,23.10
2022-08-26T16:55:51.776Z,22.90
2022-08-26T16:58:33.297Z,22.90
2022-08-26T17:01:04.824Z,22.80
2022-08-26T17:03:36.184Z,22.80
2022-08-26T17:06:09.987Z,22.80
2022-08-26T17:08:45.821Z,22.70
2022-08-26T17:11:18.206Z,22.70
2022-08-26T17:14:03.136Z,22.70
2022-08-26T17:20:09.540Z,22.50
2022-08-26T17:26:21.723Z,22.60
2022-08-26T17:33:00.136Z,22.50
2022-08-26T17:39:38.539Z,22.40
2022-08-26T17:42:41.608Z,22.40
2022-08-26T17:46:10.010Z,22.40
2022-08-26T17:52:37.151Z,22.40
2022-08-26T17:56:03.094Z,22.30
2022-08-26T18:09:54.586Z,22.20
2022-08-26T18:13:02.766Z,22.10
2022-08-26T18:19:40.968Z,21.80
2022-08-26T18:22:15.653Z,21.80
2022-08-26T18:25:48.739Z,21.70
2022-08-26T18:35:20.860Z,21.70
2022-08-26T18:38:50.746Z,21.60
2022-08-26T18:49:07.962Z,21.60
2022-08-26T18:55:36.488Z,21.60
2022-08-26T19:02:41.601Z,21.60
2022-08-26T19:09:31.571Z,21.60
2022-08-26T19:12:31.055Z,21.60
2022-08-26T19:19:08.674Z,21.50
2022-08-26T19:22:01.740Z,21.50
2022-08-26T19:25:11.032Z,21.50
2022-08-26T20:02:10.138Z,21.20
2022-08-26T20:11:14.772Z,21.20
2022-08-26T20:14:46.855Z,21.20
2022-08-26T20:21:32.349Z,21.20
2022-08-26T20:35:49.314Z,21.20
2022-08-26T20:39:21.531Z,21.20
2022-08-26T20:42:44.365Z,21.10
2022-08-26T20:46:30.682Z,21.10
2022-08-26T20:50:07.134Z,21.10
2022-08-26T20:55:36.890Z,21.00
2022-08-26T20:58:11.799Z,21.00
2022-08-26T21:01:07.833Z,20.90
2022-08-26T21:04:11.001Z,20.80
2022-08-26T21:06:55.962Z,20.80
2022-08-26T21:09:35.078Z,20.80
2022-08-26T21:12:46.087Z,20.80
2022-08-26T21:17:43.952Z,20.80
2022-08-26T21:19:38.233Z,20.80
2022-08-26T21:22:17.916Z,20.80
2022-08-26T21:27:53.790Z,20.80
2022-08-26T21:30:38.074Z,20.80
2022-08-26T21:33:42.909Z,20.80
2022-08-26T21:37:17.753Z,20.80
2022-08-26T21:44:34.342Z,20.70
2022-08-26T21:48:08.890Z,20.70
2022-08-26T21:54:54.125Z,20.60
2022-08-26T22:01:47.337Z,20.60
2022-08-26T22:09:05.674Z,20.50
2022-08-26T22:16:08.750Z,20.40
2022-08-26T22:19:19.444Z,20.30
2022-08-26T22:39:10.721Z,20.10
2022-08-26T22:42:13.475Z,20.00
2022-08-26T22:45:17.104Z,20.00
2022-08-26T22:48:53.691Z,20.00
2022-08-26T22:51:52.383Z,19.90
2022-08-26T22:54:36.476Z,19.90
2022-08-26T22:57:32.261Z,19.90
2022-08-26T23:00:18.586Z,19.80
2022-08-26T23:06:10.685Z,19.70
2022-08-26T23:09:17.286Z,19.70
2022-08-26T23:12:12.465Z,19.70
2022-08-26T23:14:55.955Z,19.70
2022-08-26T23:18:03.137Z,19.70
2022-08-26T23:21:08.953Z,19.70
2022-08-26T23:30:34.986Z,19.70
2022-08-26T23:36:23.799Z,19.70
2022-08-26T23:39:40.069Z,19.70
2022-08-26T23:42:32.060Z,19.70
2022-08-26T23:45:47.851Z,19.70
2022-08-26T23:48:51.781Z,19.60
2022-08-26T23:52:21.802Z,19.70
2022-08-26T23:58:25.516Z,19.70
